createdAt,value
2019-01-21T00:00:40.449Z,-5.50
2019-01-21T00:03:14.345Z,-5.80
2019-01-21T00:05:39.409Z,-6.10
2019-01-21T00:08:07.882Z,-6.20
2019-01-21T00:10:36.319Z,-6.20
2019-01-21T00:13:05.168Z,-6.40
2019-01-21T00:15:33.649Z,-6.30
2019-01-21T00:18:02.135Z,-6.20
2019-01-21T00:20:30.591Z,-6.10
2019-01-21T00:22:59.073Z,-6.10
2019-01-21T00:25:27.687Z,-6.00
2019-01-21T00:27:56.096Z,-6.00
2019-01-21T00:30:24.523Z,-5.90
2019-01-21T00:32:52.944Z,-5.90
2019-01-21T00:35:21.451Z,-5.90
2019-01-21T00:37:50.082Z,-6.20
2019-01-21T00:40:18.747Z,-6.00
2019-01-21T00:42:47.242Z,-6.10
2019-01-21T00:45:15.735Z,-6.00
2019-01-21T00:47:44.166Z,-5.90
2019-01-21T00:50:13.707Z,-6.00
2019-01-21T00:52:42.167Z,-6.10
2019-01-21T00:55:12.440Z,-6.10
2019-01-21T00:57:41.024Z,-6.30
2019-01-21T01:00:20.904Z,-6.10
2019-01-21T01:02:49.382Z,-6.20
2019-01-21T01:05:18.265Z,-6.20
2019-01-21T01:07:46.820Z,-6.30
2019-01-21T01:10:15.432Z,-6.40
2019-01-21T01:12:43.857Z,-6.60
2019-01-21T01:15:13.908Z,-6.70
2019-01-21T01:17:42.335Z,-6.80
2019-01-21T01:20:15.763Z,-6.60
2019-01-21T01:22:44.187Z,-6.60
2019-01-21T01:25:12.699Z,-6.70
2019-01-21T01:27:41.098Z,-6.90
2019-01-21T01:30:11.991Z,-7.00
2019-01-21T01:32:40.494Z,-6.80
2019-01-21T01:35:10.888Z,-7.00
2019-01-21T01:37:39.643Z,-7.20
2019-01-21T01:40:11.211Z,-7.20
2019-01-21T01:42:39.700Z,-7.30
2019-01-21T01:45:11.453Z,-7.40
2019-01-21T01:47:44.671Z,-7.50
2019-01-21T01:50:10.177Z,-7.70
2019-01-21T01:52:38.602Z,-7.70
2019-01-21T01:55:09.646Z,-7.60
2019-01-21T01:57:38.091Z,-7.50
2019-01-21T02:00:14.111Z,-7.80
2019-01-21T02:02:42.516Z,-7.70
2019-01-21T02:05:11.004Z,-7.40
2019-01-21T02:07:39.506Z,-7.30
2019-01-21T02:10:11.008Z,-7.30
2019-01-21T02:12:39.449Z,-7.30
2019-01-21T02:15:15.808Z,-7.40
2019-01-21T02:17:44.267Z,-7.50
2019-01-21T02:20:20.519Z,-7.60
2019-01-21T02:22:51.013Z,-7.40
2019-01-21T02:25:20.595Z,-7.30
2019-01-21T02:28:11.688Z,-7.10
2019-01-21T02:30:55.189Z,-7.40
2019-01-21T02:33:56.607Z,-7.40
2019-01-21T02:36:42.695Z,-7.30
2019-01-21T02:39:26.186Z,-7.10
2019-01-21T02:41:57.682Z,-7.40
2019-01-21T02:44:32.148Z,-7.40
2019-01-21T02:47:06.432Z,-7.30
2019-01-21T02:49:46.588Z,-7.10
2019-01-21T02:52:34.548Z,-7.00
2019-01-21T02:55:11.487Z,-7.00
2019-01-21T02:57:48.672Z,-6.90
2019-01-21T03:00:26.482Z,-6.80
2019-01-21T03:03:03.865Z,-6.80
2019-01-21T03:05:53.076Z,-6.80
2019-01-21T03:08:32.736Z,-6.80
2019-01-21T03:11:04.227Z,-6.80
2019-01-21T03:13:38.212Z,-6.80
2019-01-21T03:16:32.108Z,-6.90
2019-01-21T03:19:29.095Z,-7.00
2019-01-21T03:22:21.263Z,-7.10
2019-01-21T03:25:04.767Z,-7.00
2019-01-21T03:27:39.148Z,-7.00
2019-01-21T03:30:25.360Z,-7.20
2019-01-21T03:33:14.641Z,-7.20
2019-01-21T03:35:51.963Z,-7.30
2019-01-21T03:38:41.630Z,-7.20
2019-01-21T03:41:16.107Z,-7.40
2019-01-21T03:44:02.227Z,-7.50
2019-01-21T03:46:55.724Z,-7.40
2019-01-21T03:49:27.229Z,-7.50
2019-01-21T03:52:01.701Z,-7.60
2019-01-21T03:54:31.568Z,-7.50
2019-01-21T03:57:03.471Z,-7.60
2019-01-21T03:59:41.006Z,-7.50
2019-01-21T04:02:37.991Z,-7.40
2019-01-21T04:05:33.469Z,-7.40
2019-01-21T04:08:10.861Z,-7.30
2019-01-21T04:11:12.449Z,-7.30
2019-01-21T04:14:00.027Z,-7.00
2019-01-21T04:16:37.030Z,-6.80
2019-01-21T04:19:29.200Z,-6.70
2019-01-21T04:22:00.955Z,-6.50
2019-01-21T04:24:47.310Z,-6.30
2019-01-21T04:27:24.730Z,-6.20
2019-01-21T04:30:02.534Z,-6.20
2019-01-21T04:32:39.803Z,-6.20
2019-01-21T04:35:17.235Z,-6.30
2019-01-21T04:37:57.132Z,-6.30
2019-01-21T04:40:28.682Z,-6.30
2019-01-21T04:43:22.728Z,-6.40
2019-01-21T04:45:54.307Z,-6.30
2019-01-21T04:48:37.425Z,-6.60
2019-01-21T04:51:41.701Z,-6.50
2019-01-21T04:54:29.571Z,-6.50
2019-01-21T04:57:12.953Z,-6.50
2019-01-21T05:00:08.131Z,-6.50
2019-01-21T05:02:48.148Z,-6.40
2019-01-21T05:05:25.253Z,-6.40
2019-01-21T05:08:29.357Z,-6.40
2019-01-21T05:11:18.287Z,-6.50
2019-01-21T05:13:55.280Z,-6.30
2019-01-21T05:16:29.753Z,-6.20
2019-01-21T05:19:10.002Z,-6.30
2019-01-21T05:21:56.456Z,-6.20
2019-01-21T05:24:30.738Z,-6.20
2019-01-21T05:27:26.292Z,-5.90
2019-01-21T05:30:03.667Z,-5.90
2019-01-21T05:32:35.226Z,-5.70
2019-01-21T05:35:12.465Z,-5.60
2019-01-21T05:37:46.481Z,-5.40
2019-01-21T05:40:18.259Z,-5.60
2019-01-21T05:43:04.670Z,-5.80
2019-01-21T05:45:45.011Z,-5.90
2019-01-21T05:48:32.802Z,-5.90
2019-01-21T05:51:09.825Z,-5.90
2019-01-21T05:53:57.718Z,-5.90
2019-01-21T05:56:35.040Z,-6.10
2019-01-21T05:59:30.469Z,-6.00
2019-01-21T06:02:14.006Z,-5.80
2019-01-21T06:05:17.012Z,-5.60
2019-01-21T06:07:48.588Z,-5.60
2019-01-21T06:10:20.113Z,-5.80
2019-01-21T06:12:54.439Z,-5.70
2019-01-21T06:15:25.982Z,-5.60
2019-01-21T06:18:15.090Z,-5.50
2019-01-21T06:21:15.008Z,-5.50
2019-01-21T06:24:14.793Z,-5.80
2019-01-21T06:27:05.473Z,-5.60
2019-01-21T06:29:39.663Z,-5.50
2019-01-21T06:32:27.527Z,-5.40
2019-01-21T06:35:07.648Z,-5.20
2019-01-21T06:37:44.879Z,-5.20
2019-01-21T06:40:32.558Z,-5.40
2019-01-21T06:43:15.947Z,-5.50
2019-01-21T06:46:05.120Z,-5.60
2019-01-21T06:48:48.503Z,-5.70
2019-01-21T06:51:28.795Z,-5.60
2019-01-21T06:54:36.499Z,-5.40
2019-01-21T06:57:19.447Z,-5.40
2019-01-21T07:00:07.459Z,-5.30
2019-01-21T07:02:47.781Z,-5.50
2019-01-21T07:05:28.250Z,-5.70
2019-01-21T07:08:16.221Z,-5.80
2019-01-21T07:10:56.562Z,-6.00
2019-01-21T07:13:51.853Z,-5.90
2019-01-21T07:16:39.972Z,-6.00
2019-01-21T07:19:20.088Z,-6.00
2019-01-21T07:22:06.394Z,-6.00
2019-01-21T07:24:52.990Z,-5.90
2019-01-21T07:27:27.084Z,-5.70
2019-01-21T07:30:19.512Z,-5.80
2019-01-21T07:33:05.929Z,-5.90
2019-01-21T07:35:37.393Z,-6.00
2019-01-21T07:38:11.401Z,-6.00
2019-01-21T07:41:06.581Z,-6.10
2019-01-21T07:43:38.061Z,-6.00
2019-01-21T07:46:33.269Z,-5.90
2019-01-21T07:49:17.716Z,-5.80
2019-01-21T07:52:13.375Z,-5.70
2019-01-21T07:55:03.945Z,-5.80
2019-01-21T07:58:05.585Z,-5.70
2019-01-21T08:00:51.815Z,-5.60
2019-01-21T08:03:45.602Z,-5.40
2019-01-21T08:06:25.772Z,-5.70
2019-01-21T08:08:57.267Z,-5.60
2019-01-21T08:11:37.791Z,-5.40
2019-01-21T08:14:11.851Z,-5.00
2019-01-21T08:16:50.800Z,-4.60
2019-01-21T08:19:56.700Z,-4.70
2019-01-21T08:22:47.690Z,-4.30
2019-01-21T08:25:25.031Z,-3.90
2019-01-21T08:27:56.539Z,-3.50
2019-01-21T08:30:30.977Z,-3.00
2019-01-21T08:33:22.819Z,-3.80
2019-01-21T08:36:13.720Z,-3.80
2019-01-21T08:38:56.947Z,-3.40
2019-01-21T08:41:28.455Z,-3.00
2019-01-21T08:44:02.653Z,-2.70
2019-01-21T08:46:51.908Z,-2.70
2019-01-21T08:49:35.287Z,-3.20
2019-01-21T08:52:25.891Z,-3.30
2019-01-21T08:55:13.875Z,-3.40
2019-01-21T08:57:57.465Z,-3.40
2019-01-21T09:00:31.727Z,-3.40
2019-01-21T09:03:14.885Z,-2.70
2019-01-21T09:05:55.272Z,-2.20
2019-01-21T09:08:56.533Z,-2.00
2019-01-21T09:11:33.921Z,-2.80
2019-01-21T09:14:17.239Z,-1.50
2019-01-21T09:17:06.504Z,-0.80
2019-01-21T09:19:46.519Z,-0.80
2019-01-21T09:22:20.790Z,-1.40
2019-01-21T09:24:52.270Z,-2.30
2019-01-21T09:27:38.841Z,-2.00
2019-01-21T09:30:35.092Z,-1.90
2019-01-21T09:33:25.866Z,-1.70
2019-01-21T09:36:08.225Z,-2.10
2019-01-21T09:38:51.561Z,-2.00
2019-01-21T09:41:28.736Z,-2.10
2019-01-21T09:44:11.879Z,-2.40
2019-01-21T09:46:44.924Z,-2.20
2019-01-21T09:49:12.266Z,-2.50
2019-01-21T09:51:42.811Z,-2.30
2019-01-21T09:54:11.883Z,-2.30
2019-01-21T09:56:41.531Z,-2.20
2019-01-21T09:59:10.029Z,-1.10
2019-01-21T10:01:38.682Z,-0.80
2019-01-21T10:04:07.757Z,-1.40
2019-01-21T10:06:41.597Z,-1.20
2019-01-21T10:09:30.772Z,-0.10
2019-01-21T10:12:27.672Z,-0.50
2019-01-21T10:15:04.901Z,-0.90
2019-01-21T10:17:42.393Z,-0.80
2019-01-21T10:20:16.926Z,-1.00
2019-01-21T10:22:48.432Z,-0.40
2019-01-21T10:25:42.390Z,0.80
2019-01-21T10:28:19.484Z,1.00
2019-01-21T10:30:57.704Z,0.30
2019-01-21T10:33:45.445Z,0.40
2019-01-21T10:36:31.609Z,0.00
2019-01-21T10:39:05.698Z,-0.10
2019-01-21T10:41:48.720Z,-0.40
2019-01-21T10:44:31.926Z,-0.70
2019-01-21T10:47:12.203Z,-1.00
2019-01-21T10:50:01.773Z,-0.60
2019-01-21T10:52:47.871Z,-0.40
2019-01-21T10:55:34.052Z,-0.50
2019-01-21T10:58:05.556Z,0.10
2019-01-21T11:00:42.858Z,0.50
2019-01-21T11:03:47.465Z,0.60
2019-01-21T11:06:18.940Z,0.40
2019-01-21T11:09:02.362Z,0.10
2019-01-21T11:11:54.634Z,0.00
2019-01-21T11:14:28.952Z,0.90
2019-01-21T11:17:03.166Z,1.00
2019-01-21T11:20:04.214Z,0.80
2019-01-21T11:22:38.487Z,1.80
2019-01-21T11:25:12.608Z,1.20
2019-01-21T11:27:44.092Z,2.20
2019-01-21T11:30:26.690Z,1.40
2019-01-21T11:32:59.121Z,0.40
2019-01-21T11:35:33.582Z,1.20
2019-01-21T11:38:13.731Z,1.30
2019-01-21T11:40:53.783Z,2.20
2019-01-21T11:43:25.315Z,1.00
2019-01-21T11:46:24.983Z,1.50
2019-01-21T11:48:59.271Z,2.30
2019-01-21T11:51:56.341Z,1.60
2019-01-21T11:54:36.839Z,2.10
2019-01-21T11:57:23.016Z,2.30
2019-01-21T12:00:11.005Z,2.10
2019-01-21T12:02:45.273Z,4.00
2019-01-21T12:05:25.462Z,3.80
2019-01-21T12:08:08.685Z,2.30
2019-01-21T12:10:56.266Z,1.80
2019-01-21T12:13:36.579Z,1.50
2019-01-21T12:16:10.844Z,2.30
2019-01-21T12:18:42.305Z,2.60
2019-01-21T12:21:16.744Z,3.20
2019-01-21T12:23:53.695Z,3.10
2019-01-21T12:26:41.643Z,1.50
2019-01-21T12:29:33.767Z,2.60
2019-01-21T12:32:23.069Z,2.40
2019-01-21T12:35:13.766Z,1.10
2019-01-21T12:37:47.848Z,1.60
2019-01-21T12:40:35.890Z,2.50
2019-01-21T12:43:24.435Z,2.20
2019-01-21T12:46:13.732Z,2.70
2019-01-21T12:48:51.073Z,3.00
2019-01-21T12:51:22.645Z,3.50
2019-01-21T12:54:05.781Z,4.20
2019-01-21T12:57:01.336Z,3.00
2019-01-21T12:59:41.491Z,2.40
2019-01-21T13:02:19.089Z,2.00
2019-01-21T13:04:53.424Z,3.10
2019-01-21T13:07:36.548Z,2.40
2019-01-21T13:10:10.654Z,1.90
2019-01-21T13:12:57.158Z,1.50
2019-01-21T13:15:54.122Z,1.40
2019-01-21T13:18:43.837Z,1.50
2019-01-21T13:21:24.074Z,1.30
2019-01-21T13:23:55.680Z,1.60
2019-01-21T13:26:49.378Z,3.00
2019-01-21T13:29:24.630Z,3.20
2019-01-21T13:32:02.835Z,3.50
2019-01-21T13:34:41.128Z,2.20
2019-01-21T13:37:23.048Z,1.60
2019-01-21T13:40:12.627Z,1.50
2019-01-21T13:43:06.464Z,2.90
2019-01-21T13:46:09.223Z,3.20
2019-01-21T13:48:43.705Z,1.50
2019-01-21T13:51:33.176Z,2.70
2019-01-21T13:54:22.723Z,2.60
2019-01-21T13:56:59.984Z,3.20
2019-01-21T13:59:53.963Z,3.30
2019-01-21T14:02:28.126Z,3.90
2019-01-21T14:05:02.438Z,4.10
2019-01-21T14:07:51.898Z,3.40
2019-01-21T14:10:41.507Z,2.50
2019-01-21T14:13:32.272Z,2.20
2019-01-21T14:16:06.249Z,3.80
2019-01-21T14:18:40.366Z,2.40
2019-01-21T14:21:37.349Z,1.60
2019-01-21T14:24:36.166Z,2.10
2019-01-21T14:27:26.869Z,3.00
2019-01-21T14:30:04.142Z,3.30
2019-01-21T14:32:44.316Z,4.10
2019-01-21T14:35:33.353Z,2.20
2019-01-21T14:38:13.827Z,1.20
2019-01-21T14:41:17.033Z,0.90
2019-01-21T14:44:00.396Z,1.60
2019-01-21T14:46:43.954Z,2.70
2019-01-21T14:49:30.547Z,3.60
2019-01-21T14:52:30.339Z,2.70
2019-01-21T14:55:20.564Z,1.50
2019-01-21T14:58:01.144Z,1.60
2019-01-21T15:00:48.982Z,2.50
2019-01-21T15:03:32.013Z,3.40
2019-01-21T15:06:06.496Z,3.70
2019-01-21T15:08:38.003Z,2.40
2019-01-21T15:11:23.990Z,2.60
2019-01-21T15:13:58.363Z,2.10
2019-01-21T15:16:47.042Z,3.30
2019-01-21T15:19:21.474Z,2.60
2019-01-21T15:21:58.640Z,1.50
2019-01-21T15:24:45.298Z,1.40
2019-01-21T15:27:36.871Z,1.40
2019-01-21T15:30:20.317Z,1.70
2019-01-21T15:33:03.033Z,1.00
2019-01-21T15:35:34.540Z,1.20
2019-01-21T15:38:15.864Z,1.30
2019-01-21T15:41:06.338Z,0.90
2019-01-21T15:43:37.950Z,0.50
2019-01-21T15:46:24.684Z,0.40
2019-01-21T15:48:56.192Z,0.60
2019-01-21T15:51:51.463Z,0.80
2019-01-21T15:54:40.573Z,0.70
2019-01-21T15:57:32.735Z,0.10
2019-01-21T16:00:26.395Z,0.20
2019-01-21T16:03:03.685Z,-0.20
2019-01-21T16:05:38.079Z,-0.70
2019-01-21T16:08:09.656Z,-0.70
2019-01-21T16:10:43.871Z,-0.60
2019-01-21T16:13:15.452Z,-1.00
2019-01-21T16:15:55.796Z,-1.30
2019-01-21T16:18:27.684Z,-1.40
2019-01-21T16:21:22.779Z,-1.20
2019-01-21T16:24:13.627Z,-1.30
2019-01-21T16:26:45.147Z,-1.50
2019-01-21T16:29:19.650Z,-1.60
2019-01-21T16:31:50.915Z,-1.40
2019-01-21T16:34:40.229Z,-1.60
2019-01-21T16:37:20.780Z,-1.70
2019-01-21T16:39:52.278Z,-1.80
2019-01-21T16:42:19.652Z,-2.00
2019-01-21T16:44:48.272Z,-2.10
2019-01-21T16:47:16.709Z,-2.00
2019-01-21T16:49:45.211Z,-1.90
2019-01-21T16:52:13.643Z,-1.70
2019-01-21T16:54:42.235Z,-1.60
2019-01-21T16:57:10.680Z,-1.50
2019-01-21T16:59:39.161Z,-1.60
2019-01-21T17:02:07.610Z,-1.60
2019-01-21T17:04:37.706Z,-1.70
2019-01-21T17:07:06.172Z,-2.00
2019-01-21T17:09:34.622Z,-2.00
2019-01-21T17:12:03.031Z,-2.20
2019-01-21T17:14:31.594Z,-2.30
2019-01-21T17:16:59.993Z,-2.50
2019-01-21T17:19:28.451Z,-2.70
2019-01-21T17:21:56.939Z,-2.60
2019-01-21T17:24:27.975Z,-1.40
2019-01-21T17:26:56.446Z,-0.70
2019-01-21T17:29:24.922Z,1.40
2019-01-21T17:31:53.415Z,1.40
2019-01-21T17:34:22.017Z,-0.10
2019-01-21T17:36:50.476Z,-1.40
2019-01-21T17:39:21.786Z,-2.00
2019-01-21T17:41:51.370Z,-2.30
2019-01-21T17:44:19.837Z,-2.40
2019-01-21T17:46:57.832Z,-2.70
2019-01-21T17:49:26.413Z,-2.80
2019-01-21T17:51:54.880Z,-2.80
2019-01-21T17:54:23.436Z,-2.90
2019-01-21T17:56:54.219Z,-2.90
2019-01-21T17:59:23.572Z,-3.00
2019-01-21T18:01:51.971Z,-3.10
2019-01-21T18:04:23.789Z,-3.10
2019-01-21T18:06:52.311Z,-3.10
2019-01-21T18:09:20.816Z,-3.20
2019-01-21T18:11:49.455Z,-3.30
2019-01-21T18:14:17.922Z,-3.30
2019-01-21T18:16:46.371Z,-3.20
2019-01-21T18:19:14.927Z,-3.40
2019-01-21T18:21:43.334Z,-3.50
2019-01-21T18:24:13.567Z,-3.60
2019-01-21T18:26:42.074Z,-3.70
2019-01-21T18:29:10.610Z,-3.70
2019-01-21T18:31:39.118Z,-3.70
2019-01-21T18:34:07.707Z,-3.90
2019-01-21T18:36:36.216Z,-4.10
2019-01-21T18:39:07.822Z,-4.00
2019-01-21T18:41:37.459Z,-3.80
2019-01-21T18:44:06.067Z,-3.60
2019-01-21T18:46:34.746Z,-3.60
2019-01-21T18:49:06.718Z,-3.60
2019-01-21T18:51:35.231Z,-3.70
2019-01-21T18:54:03.771Z,-3.80
2019-01-21T18:56:32.210Z,-3.70
2019-01-21T18:59:00.847Z,-3.80
2019-01-21T19:01:29.287Z,-3.70
2019-01-21T19:03:58.575Z,-3.60
2019-01-21T19:06:27.576Z,-3.50
2019-01-21T19:08:56.093Z,-3.30
2019-01-21T19:11:24.543Z,-4.00
2019-01-21T19:13:53.143Z,-4.10
2019-01-21T19:16:21.824Z,-3.90
2019-01-21T19:18:50.260Z,-4.00
2019-01-21T19:21:18.711Z,-3.70
2019-01-21T19:23:47.169Z,-3.70
2019-01-21T19:26:15.615Z,-3.70
2019-01-21T19:28:44.027Z,-3.80
2019-01-21T19:31:12.473Z,-3.70
2019-01-21T19:33:40.883Z,-3.90
2019-01-21T19:36:09.365Z,-3.80
2019-01-21T19:38:37.823Z,-4.00
2019-01-21T19:41:06.286Z,-3.90
2019-01-21T19:43:34.703Z,-3.90
2019-01-21T19:46:03.169Z,-4.30
2019-01-21T19:48:31.655Z,-4.10
2019-01-21T19:51:00.089Z,-4.00
2019-01-21T19:53:28.512Z,-3.90
2019-01-21T19:55:56.956Z,-3.90
2019-01-21T19:58:25.368Z,-4.50
2019-01-21T20:00:53.816Z,-4.90
2019-01-21T20:03:22.231Z,-5.00
2019-01-21T20:05:50.695Z,-5.00
2019-01-21T20:08:19.112Z,-5.10
2019-01-21T20:10:47.563Z,-5.20
2019-01-21T20:13:16.198Z,-5.20
2019-01-21T20:15:44.699Z,-5.00
2019-01-21T20:18:13.099Z,-5.20
2019-01-21T20:20:41.532Z,-5.30
2019-01-21T20:23:09.945Z,-5.40
2019-01-21T20:25:38.396Z,-5.40
2019-01-21T20:28:06.875Z,-5.50
2019-01-21T20:30:35.304Z,-5.50
2019-01-21T20:33:03.890Z,-5.60
2019-01-21T20:35:32.336Z,-5.50
2019-01-21T20:38:00.746Z,-5.60
2019-01-21T20:40:29.850Z,-5.70
2019-01-21T20:42:58.275Z,-5.50
2019-01-21T20:45:26.722Z,-5.70
2019-01-21T20:47:55.167Z,-5.90
2019-01-21T20:50:28.953Z,-6.00
2019-01-21T20:52:57.403Z,-6.20
2019-01-21T20:55:26.171Z,-6.20
2019-01-21T20:57:54.678Z,-6.00
2019-01-21T21:00:25.733Z,-6.00
2019-01-21T21:02:55.024Z,-6.00
2019-01-21T21:05:23.525Z,-5.80
2019-01-21T21:07:52.063Z,-5.50
2019-01-21T21:10:20.500Z,-5.40
2019-01-21T21:12:48.976Z,-5.40
2019-01-21T21:15:23.114Z,-5.40
2019-01-21T21:17:51.570Z,-5.50
2019-01-21T21:20:19.979Z,-5.60
2019-01-21T21:22:48.540Z,-5.30
2019-01-21T21:25:18.746Z,-5.10
2019-01-21T21:27:47.255Z,-5.10
2019-01-21T21:30:18.475Z,-5.30
2019-01-21T21:32:46.907Z,-5.70
2019-01-21T21:35:15.330Z,-5.90
2019-01-21T21:37:43.771Z,-6.00
2019-01-21T21:40:14.652Z,-6.30
2019-01-21T21:42:43.498Z,-6.60
2019-01-21T21:45:14.071Z,-6.60
2019-01-21T21:47:42.523Z,-6.30
2019-01-21T21:50:13.974Z,-5.70
2019-01-21T21:52:42.472Z,-6.10
2019-01-21T21:55:11.628Z,-5.90
2019-01-21T21:57:40.077Z,-5.60
2019-01-21T22:00:11.711Z,-5.60
2019-01-21T22:02:40.429Z,-5.70
2019-01-21T22:05:10.751Z,-5.50
2019-01-21T22:07:39.267Z,-5.60
2019-01-21T22:10:19.708Z,-6.00
2019-01-21T22:12:46.337Z,-6.10
2019-01-21T22:15:17.068Z,-5.80
2019-01-21T22:17:45.567Z,-5.50
2019-01-21T22:20:16.151Z,-5.60
2019-01-21T22:22:44.661Z,-6.00
2019-01-21T22:25:13.215Z,-5.90
2019-01-21T22:27:41.661Z,-5.80
2019-01-21T22:30:19.472Z,-6.10
2019-01-21T22:32:47.893Z,-6.40
2019-01-21T22:35:16.372Z,-6.80
2019-01-21T22:37:45.177Z,-6.80
2019-01-21T22:40:15.928Z,-6.90
2019-01-21T22:42:44.434Z,-6.80
2019-01-21T22:45:14.387Z,-7.00
2019-01-21T22:47:42.891Z,-7.00
2019-01-21T22:50:14.011Z,-7.00
2019-01-21T22:52:42.507Z,-6.50
2019-01-21T22:55:14.899Z,-6.20
2019-01-21T22:57:43.334Z,-6.30
2019-01-21T23:00:20.716Z,-6.60
2019-01-21T23:02:49.162Z,-7.00
2019-01-21T23:05:17.579Z,-7.30
2019-01-21T23:07:46.015Z,-6.80
2019-01-21T23:10:14.503Z,-6.80
2019-01-21T23:12:42.972Z,-6.80
2019-01-21T23:15:11.815Z,-6.60
2019-01-21T23:17:40.270Z,-6.60
2019-01-21T23:20:10.619Z,-6.30
2019-01-21T23:22:39.054Z,-6.20
2019-01-21T23:25:07.903Z,-6.10
2019-01-21T23:27:36.350Z,-5.80
2019-01-21T23:30:07.919Z,-6.10
2019-01-21T23:32:36.438Z,-6.80
2019-01-21T23:35:05.641Z,-7.00
2019-01-21T23:37:34.079Z,-6.90
2019-01-21T23:40:02.571Z,-6.70
2019-01-21T23:42:30.991Z,-6.90
2019-01-21T23:44:59.411Z,-6.60
2019-01-21T23:47:27.842Z,-6.90
2019-01-21T23:49:56.277Z,-7.40
2019-01-21T23:52:24.743Z,-7.60
2019-01-21T23:54:53.542Z,-7.70
2019-01-21T23:57:21.991Z,-7.40
2019-01-21T23:59:50.557Z,-7.40
